Oakes, North Dakota
Current Conditions -  °F | °C
As of 5:15 AM on Saturday 25 Oct 2014 (Local Time) from KGWR Reporting Station
Few Clouds Few Clouds  
Wind Chill:   Ceiling: Unl
Heat Index:   Visibility: 10mi
Dew Point:   Wind: 6mph
Humidity: 62%   Direction: 280°W
Pressure: 30.07"   Gusts: NA
Location:  46.14°N, 98.09°W
Report Text: KGWR 251015Z AUTO 28005KT 10SM FEW120 08/01 A3007 RMK A01 P000
Loading
Personal Weather Stations






























Interactive Weather Map
Tropical Storm Tracking
New forecast layout! Learn more

10-Day Weather Forecast

Advertisements
Track Severe Weather on mobile